sensor_id;sensor_type;location;lat;lon;timestamp;temperature;humidity
12049;DHT22;6085;49.452;8.502;2024-01-06T00:02:23;4.30;99.90
12049;DHT22;6085;49.452;8.502;2024-01-06T00:06:25;4.20;99.90
12049;DHT22;6085;49.452;8.502;2024-01-06T00:10:27;4.10;99.90
12049;DHT22;6085;49.452;8.502;2024-01-06T00:14:29;4.10;99.90
12049;DHT22;6085;49.452;8.502;2024-01-06T00:18:32;4.10;99.90
12049;DHT22;6085;49.452;8.502;2024-01-06T00:22:33;4.20;99.90
12049;DHT22;6085;49.452;8.502;2024-01-06T00:26:36;4.30;99.90
12049;DHT22;6085;49.452;8.502;2024-01-06T00:30:38;4.30;99.90
12049;DHT22;6085;49.452;8.502;2024-01-06T00:34:41;4.20;99.90
12049;DHT22;6085;49.452;8.502;2024-01-06T00:38:43;4.10;99.90
12049;DHT22;6085;49.452;8.502;2024-01-06T00:42:44;4.10;99.90
12049;DHT22;6085;49.452;8.502;2024-01-06T00:46:46;3.90;99.90
12049;DHT22;6085;49.452;8.502;2024-01-06T00:50:49;3.70;99.90
12049;DHT22;6085;49.452;8.502;2024-01-06T00:54:51;3.50;99.90
12049;DHT22;6085;49.452;8.502;2024-01-06T00:58:53;3.30;99.90
12049;DHT22;6085;49.452;8.502;2024-01-06T01:02:55;3.10;99.90
12049;DHT22;6085;49.452;8.502;2024-01-06T01:06:58;3.00;99.90
12049;DHT22;6085;49.452;8.502;2024-01-06T01:11:00;2.90;99.90
12049;DHT22;6085;49.452;8.502;2024-01-06T01:15:02;2.90;99.90
12049;DHT22;6085;49.452;8.502;2024-01-06T01:19:05;2.80;99.90
12049;DHT22;6085;49.452;8.502;2024-01-06T01:23:08;2.70;99.90
12049;DHT22;6085;49.452;8.502;2024-01-06T01:27:10;2.70;99.90
12049;DHT22;6085;49.452;8.502;2024-01-06T01:31:12;2.60;99.90
12049;DHT22;6085;49.452;8.502;2024-01-06T01:35:14;2.70;99.90
12049;DHT22;6085;49.452;8.502;2024-01-06T01:39:17;2.90;99.90
12049;DHT22;6085;49.452;8.502;2024-01-06T01:43:19;3.20;99.90
12049;DHT22;6085;49.452;8.502;2024-01-06T01:47:21;3.60;99.90
12049;DHT22;6085;49.452;8.502;2024-01-06T01:51:26;4.10;99.90
12049;DHT22;6085;49.452;8.502;2024-01-06T01:55:29;4.30;99.90
12049;DHT22;6085;49.452;8.502;2024-01-06T01:59:31;4.30;99.90
12049;DHT22;6085;49.452;8.502;2024-01-06T02:03:33;4.30;99.90
12049;DHT22;6085;49.452;8.502;2024-01-06T02:07:36;4.10;99.90
12049;DHT22;6085;49.452;8.502;2024-01-06T02:11:39;3.90;99.90
12049;DHT22;6085;49.452;8.502;2024-01-06T02:15:41;3.70;99.90
12049;DHT22;6085;49.452;8.502;2024-01-06T02:19:43;3.50;99.90
12049;DHT22;6085;49.452;8.502;2024-01-06T02:23:47;3.40;99.90
12049;DHT22;6085;49.452;8.502;2024-01-06T02:27:49;3.40;99.90
12049;DHT22;6085;49.452;8.502;2024-01-06T02:31:51;3.50;99.90
12049;DHT22;6085;49.452;8.502;2024-01-06T02:35:52;3.60;99.90
12049;DHT22;6085;49.452;8.502;2024-01-06T02:39:56;3.80;99.90
12049;DHT22;6085;49.452;8.502;2024-01-06T02:43:57;3.90;99.90
12049;DHT22;6085;49.452;8.502;2024-01-06T02:47:59;4.10;99.90
12049;DHT22;6085;49.452;8.502;2024-01-06T02:52:01;4.30;99.90
12049;DHT22;6085;49.452;8.502;2024-01-06T02:56:09;4.40;99.90
12049;DHT22;6085;49.452;8.502;2024-01-06T03:00:12;4.50;99.90
12049;DHT22;6085;49.452;8.502;2024-01-06T03:04:14;4.50;99.90
12049;DHT22;6085;49.452;8.502;2024-01-06T03:08:16;4.60;99.90
12049;DHT22;6085;49.452;8.502;2024-01-06T03:12:19;4.60;99.90
12049;DHT22;6085;49.452;8.502;2024-01-06T03:16:21;4.60;99.90
12049;DHT22;6085;49.452;8.502;2024-01-06T03:20:23;4.70;99.90
12049;DHT22;6085;49.452;8.502;2024-01-06T03:24:26;4.80;99.90
12049;DHT22;6085;49.452;8.502;2024-01-06T03:28:29;4.90;99.90
12049;DHT22;6085;49.452;8.502;2024-01-06T03:32:31;5.00;99.90
12049;DHT22;6085;49.452;8.502;2024-01-06T03:36:33;5.10;99.90
12049;DHT22;6085;49.452;8.502;2024-01-06T03:40:35;5.10;99.90
12049;DHT22;6085;49.452;8.502;2024-01-06T03:44:38;5.10;99.90
12049;DHT22;6085;49.452;8.502;2024-01-06T03:48:40;5.10;99.90
12049;DHT22;6085;49.452;8.502;2024-01-06T03:52:42;5.10;99.90
12049;DHT22;6085;49.452;8.502;2024-01-06T03:56:43;5.10;99.90
12049;DHT22;6085;49.452;8.502;2024-01-06T04:00:47;5.10;99.90
12049;DHT22;6085;49.452;8.502;2024-01-06T04:04:49;5.10;99.90
12049;DHT22;6085;49.452;8.502;2024-01-06T04:08:51;5.10;99.90
12049;DHT22;6085;49.452;8.502;2024-01-06T04:12:53;5.20;99.90
12049;DHT22;6085;49.452;8.502;2024-01-06T04:16:57;5.20;99.90
12049;DHT22;6085;49.452;8.502;2024-01-06T04:20:59;5.20;99.90
12049;DHT22;6085;49.452;8.502;2024-01-06T04:25:01;5.20;99.90
12049;DHT22;6085;49.452;8.502;2024-01-06T04:29:02;5.20;99.90
12049;DHT22;6085;49.452;8.502;2024-01-06T04:33:06;5.20;99.90
12049;DHT22;6085;49.452;8.502;2024-01-06T04:37:08;5.20;99.90
12049;DHT22;6085;49.452;8.502;2024-01-06T04:41:10;5.20;99.90
12049;DHT22;6085;49.452;8.502;2024-01-06T04:45:12;5.20;99.90
12049;DHT22;6085;49.452;8.502;2024-01-06T04:49:15;5.20;99.90
12049;DHT22;6085;49.452;8.502;2024-01-06T04:53:16;5.10;99.90
12049;DHT22;6085;49.452;8.502;2024-01-06T04:57:19;5.10;99.90
12049;DHT22;6085;49.452;8.502;2024-01-06T05:01:21;5.10;99.90
12049;DHT22;6085;49.452;8.502;2024-01-06T05:05:24;5.10;99.90
12049;DHT22;6085;49.452;8.502;2024-01-06T05:09:26;5.10;99.90
12049;DHT22;6085;49.452;8.502;2024-01-06T05:13:28;5.10;99.90
12049;DHT22;6085;49.452;8.502;2024-01-06T05:17:30;5.00;99.90
12049;DHT22;6085;49.452;8.502;2024-01-06T05:21:33;5.00;99.90
12049;DHT22;6085;49.452;8.502;2024-01-06T05:25:35;5.00;99.90
12049;DHT22;6085;49.452;8.502;2024-01-06T05:29:37;5.00;99.90
12049;DHT22;6085;49.452;8.502;2024-01-06T05:33:39;5.00;99.90
12049;DHT22;6085;49.452;8.502;2024-01-06T05:37:42;5.00;99.90
12049;DHT22;6085;49.452;8.502;2024-01-06T05:41:44;4.90;99.90
12049;DHT22;6085;49.452;8.502;2024-01-06T05:45:46;4.90;99.90
12049;DHT22;6085;49.452;8.502;2024-01-06T05:49:48;4.90;99.90
12049;DHT22;6085;49.452;8.502;2024-01-06T05:53:51;5.00;99.90
12049;DHT22;6085;49.452;8.502;2024-01-06T05:57:53;5.00;99.90
12049;DHT22;6085;49.452;8.502;2024-01-06T06:01:54;4.90;99.90
12049;DHT22;6085;49.452;8.502;2024-01-06T06:05:56;4.90;99.90
12049;DHT22;6085;49.452;8.502;2024-01-06T06:09:59;4.90;99.90
12049;DHT22;6085;49.452;8.502;2024-01-06T06:14:04;4.90;99.90
12049;DHT22;6085;49.452;8.502;2024-01-06T06:18:06;4.90;99.90
12049;DHT22;6085;49.452;8.502;2024-01-06T06:22:07;4.80;99.90
12049;DHT22;6085;49.452;8.502;2024-01-06T06:26:11;4.90;99.90
12049;DHT22;6085;49.452;8.502;2024-01-06T06:30:13;4.90;99.90
12049;DHT22;6085;49.452;8.502;2024-01-06T06:34:15;4.90;99.90
12049;DHT22;6085;49.452;8.502;2024-01-06T06:38:17;4.80;99.90
12049;DHT22;6085;49.452;8.502;2024-01-06T06:42:20;4.90;99.90
12049;DHT22;6085;49.452;8.502;2024-01-06T06:46:22;4.90;99.90
12049;DHT22;6085;49.452;8.502;2024-01-06T06:50:24;4.90;99.90
12049;DHT22;6085;49.452;8.502;2024-01-06T06:54:26;4.80;99.90
12049;DHT22;6085;49.452;8.502;2024-01-06T06:58:30;4.80;99.90
12049;DHT22;6085;49.452;8.502;2024-01-06T07:02:32;4.80;99.90
12049;DHT22;6085;49.452;8.502;2024-01-06T07:06:34;4.70;99.90
12049;DHT22;6085;49.452;8.502;2024-01-06T07:10:36;4.70;99.90
12049;DHT22;6085;49.452;8.502;2024-01-06T07:14:39;4.70;99.90
12049;DHT22;6085;49.452;8.502;2024-01-06T07:18:41;4.70;99.90
12049;DHT22;6085;49.452;8.502;2024-01-06T07:22:43;4.70;99.90
12049;DHT22;6085;49.452;8.502;2024-01-06T07:26:45;4.70;99.90
12049;DHT22;6085;49.452;8.502;2024-01-06T07:30:48;4.80;99.90
12049;DHT22;6085;49.452;8.502;2024-01-06T07:34:50;4.80;99.90
12049;DHT22;6085;49.452;8.502;2024-01-06T07:38:52;4.80;99.90
12049;DHT22;6085;49.452;8.502;2024-01-06T07:42:54;4.80;99.90
12049;DHT22;6085;49.452;8.502;2024-01-06T07:46:57;4.90;99.90
12049;DHT22;6085;49.452;8.502;2024-01-06T07:50:59;4.90;99.90
12049;DHT22;6085;49.452;8.502;2024-01-06T07:55:01;4.90;99.90
12049;DHT22;6085;49.452;8.502;2024-01-06T07:59:04;5.00;99.90
12049;DHT22;6085;49.452;8.502;2024-01-06T08:03:07;5.10;99.90
12049;DHT22;6085;49.452;8.502;2024-01-06T08:07:09;5.10;99.90
12049;DHT22;6085;49.452;8.502;2024-01-06T08:11:10;5.10;99.90
12049;DHT22;6085;49.452;8.502;2024-01-06T08:15:13;5.10;99.90
12049;DHT22;6085;49.452;8.502;2024-01-06T08:19:16;5.20;99.90
12049;DHT22;6085;49.452;8.502;2024-01-06T08:23:18;5.20;99.90
12049;DHT22;6085;49.452;8.502;2024-01-06T08:27:20;5.20;99.90
12049;DHT22;6085;49.452;8.502;2024-01-06T08:31:24;5.20;99.90
12049;DHT22;6085;49.452;8.502;2024-01-06T08:35:27;5.20;99.90
12049;DHT22;6085;49.452;8.502;2024-01-06T08:39:29;5.20;99.90
12049;DHT22;6085;49.452;8.502;2024-01-06T08:43:31;5.20;99.90
12049;DHT22;6085;49.452;8.502;2024-01-06T08:47:33;5.30;99.90
12049;DHT22;6085;49.452;8.502;2024-01-06T08:51:36;5.30;99.90
12049;DHT22;6085;49.452;8.502;2024-01-06T08:55:38;5.30;99.90
12049;DHT22;6085;49.452;8.502;2024-01-06T08:59:40;5.20;99.90
12049;DHT22;6085;49.452;8.502;2024-01-06T09:03:41;5.10;99.90
12049;DHT22;6085;49.452;8.502;2024-01-06T09:07:45;5.10;99.90
12049;DHT22;6085;49.452;8.502;2024-01-06T09:11:50;5.10;99.90
12049;DHT22;6085;49.452;8.502;2024-01-06T09:15:53;5.20;99.90
12049;DHT22;6085;49.452;8.502;2024-01-06T09:19:55;5.30;99.90
12049;DHT22;6085;49.452;8.502;2024-01-06T09:23:58;5.30;99.90
12049;DHT22;6085;49.452;8.502;2024-01-06T09:28:01;5.40;99.90
12049;DHT22;6085;49.452;8.502;2024-01-06T09:32:03;5.50;99.90
12049;DHT22;6085;49.452;8.502;2024-01-06T09:36:05;5.50;99.90
12049;DHT22;6085;49.452;8.502;2024-01-06T09:40:12;5.50;99.90
12049;DHT22;6085;49.452;8.502;2024-01-06T09:44:14;5.60;99.90
12049;DHT22;6085;49.452;8.502;2024-01-06T09:48:17;5.70;99.90
12049;DHT22;6085;49.452;8.502;2024-01-06T09:52:22;5.80;99.90
12049;DHT22;6085;49.452;8.502;2024-01-06T09:56:26;5.90;99.90
12049;DHT22;6085;49.452;8.502;2024-01-06T10:00:28;6.00;99.90
12049;DHT22;6085;49.452;8.502;2024-01-06T10:04:30;6.10;99.90
12049;DHT22;6085;49.452;8.502;2024-01-06T10:08:33;6.50;99.90
12049;DHT22;6085;49.452;8.502;2024-01-06T10:12:39;6.80;99.90
12049;DHT22;6085;49.452;8.502;2024-01-06T10:16:41;6.90;99.90
12049;DHT22;6085;49.452;8.502;2024-01-06T10:20:44;6.70;99.90
12049;DHT22;6085;49.452;8.502;2024-01-06T10:24:46;6.80;99.90
12049;DHT22;6085;49.452;8.502;2024-01-06T10:28:49;7.00;99.90
12049;DHT22;6085;49.452;8.502;2024-01-06T10:32:52;7.30;99.90
12049;DHT22;6085;49.452;8.502;2024-01-06T10:36:53;7.60;99.90
12049;DHT22;6085;49.452;8.502;2024-01-06T10:40:56;7.80;99.90
12049;DHT22;6085;49.452;8.502;2024-01-06T10:45:00;7.90;99.90
12049;DHT22;6085;49.452;8.502;2024-01-06T10:49:03;8.00;99.90
12049;DHT22;6085;49.452;8.502;2024-01-06T10:53:09;7.90;99.90
12049;DHT22;6085;49.452;8.502;2024-01-06T10:57:12;7.80;99.90
12049;DHT22;6085;49.452;8.502;2024-01-06T11:01:21;7.90;99.90
12049;DHT22;6085;49.452;8.502;2024-01-06T11:05:25;8.00;99.90
12049;DHT22;6085;49.452;8.502;2024-01-06T11:09:31;8.00;99.90
12049;DHT22;6085;49.452;8.502;2024-01-06T11:13:34;8.00;99.90
12049;DHT22;6085;49.452;8.502;2024-01-06T11:17:50;7.80;99.90
12049;DHT22;6085;49.452;8.502;2024-01-06T11:21:54;7.70;99.90
12049;DHT22;6085;49.452;8.502;2024-01-06T11:25:55;7.50;99.90
12049;DHT22;6085;49.452;8.502;2024-01-06T11:30:01;7.30;99.90
12049;DHT22;6085;49.452;8.502;2024-01-06T11:34:17;7.30;99.90
12049;DHT22;6085;49.452;8.502;2024-01-06T11:38:19;7.30;99.90
12049;DHT22;6085;49.452;8.502;2024-01-06T11:42:21;7.40;99.90
12049;DHT22;6085;49.452;8.502;2024-01-06T11:46:23;7.50;99.90
12049;DHT22;6085;49.452;8.502;2024-01-06T11:50:28;7.50;99.90
12049;DHT22;6085;49.452;8.502;2024-01-06T11:54:30;7.40;99.90
12049;DHT22;6085;49.452;8.502;2024-01-06T11:58:33;7.30;99.90
12049;DHT22;6085;49.452;8.502;2024-01-06T12:02:35;7.20;99.90
12049;DHT22;6085;49.452;8.502;2024-01-06T12:06:38;7.10;99.90
12049;DHT22;6085;49.452;8.502;2024-01-06T12:10:40;7.00;99.90
12049;DHT22;6085;49.452;8.502;2024-01-06T12:14:41;6.90;99.90
12049;DHT22;6085;49.452;8.502;2024-01-06T12:18:43;6.90;99.90
12049;DHT22;6085;49.452;8.502;2024-01-06T12:22:47;6.90;99.90
12049;DHT22;6085;49.452;8.502;2024-01-06T12:26:49;6.90;99.90
12049;DHT22;6085;49.452;8.502;2024-01-06T12:30:51;6.90;99.90
12049;DHT22;6085;49.452;8.502;2024-01-06T12:34:53;6.90;99.90
12049;DHT22;6085;49.452;8.502;2024-01-06T12:38:58;6.90;99.90
12049;DHT22;6085;49.452;8.502;2024-01-06T12:43:01;6.90;99.90
12049;DHT22;6085;49.452;8.502;2024-01-06T12:47:03;6.80;99.90
12049;DHT22;6085;49.452;8.502;2024-01-06T12:51:05;6.70;99.90
12049;DHT22;6085;49.452;8.502;2024-01-06T12:55:08;6.70;99.90
12049;DHT22;6085;49.452;8.502;2024-01-06T12:59:11;6.70;99.90
12049;DHT22;6085;49.452;8.502;2024-01-06T13:03:13;6.70;99.90
12049;DHT22;6085;49.452;8.502;2024-01-06T13:07:15;6.80;99.90
12049;DHT22;6085;49.452;8.502;2024-01-06T13:11:18;6.90;99.90
12049;DHT22;6085;49.452;8.502;2024-01-06T13:15:20;7.00;99.90
12049;DHT22;6085;49.452;8.502;2024-01-06T13:19:22;7.00;99.90
12049;DHT22;6085;49.452;8.502;2024-01-06T13:23:24;7.00;99.90
12049;DHT22;6085;49.452;8.502;2024-01-06T13:27:27;7.00;99.90
12049;DHT22;6085;49.452;8.502;2024-01-06T13:31:29;7.00;99.90
12049;DHT22;6085;49.452;8.502;2024-01-06T13:35:32;6.90;99.90
12049;DHT22;6085;49.452;8.502;2024-01-06T13:39:34;6.90;99.90
12049;DHT22;6085;49.452;8.502;2024-01-06T13:43:37;6.80;99.90
12049;DHT22;6085;49.452;8.502;2024-01-06T13:47:39;6.80;99.90
12049;DHT22;6085;49.452;8.502;2024-01-06T13:51:45;6.80;99.90
12049;DHT22;6085;49.452;8.502;2024-01-06T13:55:47;6.80;99.90
12049;DHT22;6085;49.452;8.502;2024-01-06T13:59:52;6.80;99.90
12049;DHT22;6085;49.452;8.502;2024-01-06T14:03:54;6.70;99.90
12049;DHT22;6085;49.452;8.502;2024-01-06T14:07:58;6.60;99.90
12049;DHT22;6085;49.452;8.502;2024-01-06T14:12:00;6.40;99.90
12049;DHT22;6085;49.452;8.502;2024-01-06T14:16:04;6.30;99.90
12049;DHT22;6085;49.452;8.502;2024-01-06T14:20:06;6.20;99.90
12049;DHT22;6085;49.452;8.502;2024-01-06T14:24:09;6.00;99.90
12049;DHT22;6085;49.452;8.502;2024-01-06T14:28:12;6.00;99.90
12049;DHT22;6085;49.452;8.502;2024-01-06T14:32:16;5.90;99.90
12049;DHT22;6085;49.452;8.502;2024-01-06T14:36:17;5.90;99.90
12049;DHT22;6085;49.452;8.502;2024-01-06T14:40:20;6.00;99.90
12049;DHT22;6085;49.452;8.502;2024-01-06T14:44:21;5.90;99.90
12049;DHT22;6085;49.452;8.502;2024-01-06T14:48:26;5.90;99.90
12049;DHT22;6085;49.452;8.502;2024-01-06T14:52:28;5.90;99.90
12049;DHT22;6085;49.452;8.502;2024-01-06T14:56:29;5.90;99.90
12049;DHT22;6085;49.452;8.502;2024-01-06T15:00:31;5.90;99.90
12049;DHT22;6085;49.452;8.502;2024-01-06T15:04:37;5.90;99.90
12049;DHT22;6085;49.452;8.502;2024-01-06T15:08:39;5.90;99.90
12049;DHT22;6085;49.452;8.502;2024-01-06T15:12:41;5.80;99.90
12049;DHT22;6085;49.452;8.502;2024-01-06T15:16:43;5.80;99.90
12049;DHT22;6085;49.452;8.502;2024-01-06T15:20:46;5.80;99.90
12049;DHT22;6085;49.452;8.502;2024-01-06T15:24:48;5.80;99.90
12049;DHT22;6085;49.452;8.502;2024-01-06T15:28:51;5.80;99.90
12049;DHT22;6085;49.452;8.502;2024-01-06T15:32:53;5.70;99.90
12049;DHT22;6085;49.452;8.502;2024-01-06T15:36:57;5.70;99.90
12049;DHT22;6085;49.452;8.502;2024-01-06T15:40:58;5.70;99.90
12049;DHT22;6085;49.452;8.502;2024-01-06T15:45:00;5.70;99.90
12049;DHT22;6085;49.452;8.502;2024-01-06T15:49:02;5.70;99.90
12049;DHT22;6085;49.452;8.502;2024-01-06T15:53:05;5.70;99.90
12049;DHT22;6085;49.452;8.502;2024-01-06T15:57:07;5.70;99.90
12049;DHT22;6085;49.452;8.502;2024-01-06T16:01:10;5.70;99.90
12049;DHT22;6085;49.452;8.502;2024-01-06T16:05:12;5.70;99.90
12049;DHT22;6085;49.452;8.502;2024-01-06T16:09:15;5.70;99.90
12049;DHT22;6085;49.452;8.502;2024-01-06T16:13:17;5.70;99.90
12049;DHT22;6085;49.452;8.502;2024-01-06T16:17:19;5.70;99.90
12049;DHT22;6085;49.452;8.502;2024-01-06T16:21:22;5.70;99.90
12049;DHT22;6085;49.452;8.502;2024-01-06T16:25:25;5.70;99.90
12049;DHT22;6085;49.452;8.502;2024-01-06T16:29:27;5.70;99.90
12049;DHT22;6085;49.452;8.502;2024-01-06T16:33:29;5.70;99.90
12049;DHT22;6085;49.452;8.502;2024-01-06T16:37:31;5.70;99.90
12049;DHT22;6085;49.452;8.502;2024-01-06T16:41:35;5.70;99.90
12049;DHT22;6085;49.452;8.502;2024-01-06T16:45:37;5.70;99.90
12049;DHT22;6085;49.452;8.502;2024-01-06T16:49:39;5.60;99.90
12049;DHT22;6085;49.452;8.502;2024-01-06T16:53:41;5.70;99.90
12049;DHT22;6085;49.452;8.502;2024-01-06T16:57:44;5.60;99.90
12049;DHT22;6085;49.452;8.502;2024-01-06T17:01:46;5.60;99.90
12049;DHT22;6085;49.452;8.502;2024-01-06T17:05:48;5.60;99.90
12049;DHT22;6085;49.452;8.502;2024-01-06T17:09:50;5.70;99.90
12049;DHT22;6085;49.452;8.502;2024-01-06T17:13:53;5.70;99.90
12049;DHT22;6085;49.452;8.502;2024-01-06T17:17:55;5.70;99.90
12049;DHT22;6085;49.452;8.502;2024-01-06T17:21:57;5.60;99.90
12049;DHT22;6085;49.452;8.502;2024-01-06T17:25:59;5.60;99.90
12049;DHT22;6085;49.452;8.502;2024-01-06T17:30:03;5.60;99.90
12049;DHT22;6085;49.452;8.502;2024-01-06T17:34:05;5.60;99.90
12049;DHT22;6085;49.452;8.502;2024-01-06T17:38:08;5.60;99.90
12049;DHT22;6085;49.452;8.502;2024-01-06T17:42:11;5.50;99.90
12049;DHT22;6085;49.452;8.502;2024-01-06T17:46:14;5.50;99.90
12049;DHT22;6085;49.452;8.502;2024-01-06T17:50:16;5.50;99.90
12049;DHT22;6085;49.452;8.502;2024-01-06T17:54:18;5.50;99.90
12049;DHT22;6085;49.452;8.502;2024-01-06T17:58:20;5.50;99.90
12049;DHT22;6085;49.452;8.502;2024-01-06T18:02:23;5.60;99.90
12049;DHT22;6085;49.452;8.502;2024-01-06T18:06:25;5.50;99.90
12049;DHT22;6085;49.452;8.502;2024-01-06T18:10:28;5.40;99.90
12049;DHT22;6085;49.452;8.502;2024-01-06T18:14:30;5.30;99.90
12049;DHT22;6085;49.452;8.502;2024-01-06T18:18:37;5.30;99.90
12049;DHT22;6085;49.452;8.502;2024-01-06T18:22:39;5.30;99.90
12049;DHT22;6085;49.452;8.502;2024-01-06T18:26:41;5.20;99.90
12049;DHT22;6085;49.452;8.502;2024-01-06T18:30:43;5.10;99.90
12049;DHT22;6085;49.452;8.502;2024-01-06T18:34:46;5.10;99.90
12049;DHT22;6085;49.452;8.502;2024-01-06T18:38:48;5.00;99.90
12049;DHT22;6085;49.452;8.502;2024-01-06T18:42:50;5.00;99.90
12049;DHT22;6085;49.452;8.502;2024-01-06T18:46:53;4.90;99.90
12049;DHT22;6085;49.452;8.502;2024-01-06T18:50:57;4.90;99.90
12049;DHT22;6085;49.452;8.502;2024-01-06T18:54:58;4.80;99.90
12049;DHT22;6085;49.452;8.502;2024-01-06T18:59:00;4.80;99.90
12049;DHT22;6085;49.452;8.502;2024-01-06T19:03:03;4.80;99.90
12049;DHT22;6085;49.452;8.502;2024-01-06T19:07:06;4.70;99.90
12049;DHT22;6085;49.452;8.502;2024-01-06T19:11:08;4.70;99.90
12049;DHT22;6085;49.452;8.502;2024-01-06T19:15:10;4.70;99.90
12049;DHT22;6085;49.452;8.502;2024-01-06T19:19:12;4.70;99.90
12049;DHT22;6085;49.452;8.502;2024-01-06T19:23:15;4.70;99.90
12049;DHT22;6085;49.452;8.502;2024-01-06T19:27:17;4.70;99.90
12049;DHT22;6085;49.452;8.502;2024-01-06T19:31:19;4.70;99.90
12049;DHT22;6085;49.452;8.502;2024-01-06T19:35:21;4.70;99.90
12049;DHT22;6085;49.452;8.502;2024-01-06T19:39:24;4.60;99.90
12049;DHT22;6085;49.452;8.502;2024-01-06T19:43:27;4.60;99.90
12049;DHT22;6085;49.452;8.502;2024-01-06T19:47:29;4.60;99.90
12049;DHT22;6085;49.452;8.502;2024-01-06T19:51:31;4.60;99.90
12049;DHT22;6085;49.452;8.502;2024-01-06T19:55:34;4.50;99.90
12049;DHT22;6085;49.452;8.502;2024-01-06T19:59:36;4.60;99.90
12049;DHT22;6085;49.452;8.502;2024-01-06T20:03:38;4.50;99.90
12049;DHT22;6085;49.452;8.502;2024-01-06T20:07:40;4.50;99.90
12049;DHT22;6085;49.452;8.502;2024-01-06T20:11:43;4.50;99.90
12049;DHT22;6085;49.452;8.502;2024-01-06T20:15:46;4.50;99.90
12049;DHT22;6085;49.452;8.502;2024-01-06T20:19:48;4.50;99.90
12049;DHT22;6085;49.452;8.502;2024-01-06T20:23:50;4.50;99.90
12049;DHT22;6085;49.452;8.502;2024-01-06T20:27:53;4.50;99.90
12049;DHT22;6085;49.452;8.502;2024-01-06T20:31:55;4.50;99.90
12049;DHT22;6085;49.452;8.502;2024-01-06T20:35:57;4.50;99.90
12049;DHT22;6085;49.452;8.502;2024-01-06T20:39:59;4.50;99.90
12049;DHT22;6085;49.452;8.502;2024-01-06T20:44:03;4.50;99.90
12049;DHT22;6085;49.452;8.502;2024-01-06T20:48:06;4.50;99.90
12049;DHT22;6085;49.452;8.502;2024-01-06T20:52:08;4.50;99.90
12049;DHT22;6085;49.452;8.502;2024-01-06T20:56:10;4.50;99.90
12049;DHT22;6085;49.452;8.502;2024-01-06T21:00:15;4.50;99.90
12049;DHT22;6085;49.452;8.502;2024-01-06T21:04:18;4.40;99.90
12049;DHT22;6085;49.452;8.502;2024-01-06T21:08:20;4.50;99.90
12049;DHT22;6085;49.452;8.502;2024-01-06T21:12:22;4.40;99.90
12049;DHT22;6085;49.452;8.502;2024-01-06T21:16:25;4.40;99.90
12049;DHT22;6085;49.452;8.502;2024-01-06T21:20:27;4.40;99.90
12049;DHT22;6085;49.452;8.502;2024-01-06T21:24:29;4.40;99.90
12049;DHT22;6085;49.452;8.502;2024-01-06T21:28:30;4.40;99.90
12049;DHT22;6085;49.452;8.502;2024-01-06T21:32:34;4.40;99.90
12049;DHT22;6085;49.452;8.502;2024-01-06T21:36:37;4.40;99.90
12049;DHT22;6085;49.452;8.502;2024-01-06T21:40:39;4.40;99.90
12049;DHT22;6085;49.452;8.502;2024-01-06T21:44:42;4.40;99.90
12049;DHT22;6085;49.452;8.502;2024-01-06T21:48:45;4.50;99.90
12049;DHT22;6085;49.452;8.502;2024-01-06T21:52:48;4.40;99.90
12049;DHT22;6085;49.452;8.502;2024-01-06T21:56:50;4.40;99.90
12049;DHT22;6085;49.452;8.502;2024-01-06T22:00:52;4.40;99.90
12049;DHT22;6085;49.452;8.502;2024-01-06T22:04:58;4.40;99.90
12049;DHT22;6085;49.452;8.502;2024-01-06T22:09:00;4.40;99.90
12049;DHT22;6085;49.452;8.502;2024-01-06T22:13:02;4.40;99.90
12049;DHT22;6085;49.452;8.502;2024-01-06T22:17:04;4.40;99.90
12049;DHT22;6085;49.452;8.502;2024-01-06T22:21:08;4.30;99.90
12049;DHT22;6085;49.452;8.502;2024-01-06T22:25:10;4.30;99.90
12049;DHT22;6085;49.452;8.502;2024-01-06T22:29:12;4.30;99.90
12049;DHT22;6085;49.452;8.502;2024-01-06T22:33:14;4.30;99.90
12049;DHT22;6085;49.452;8.502;2024-01-06T22:37:18;4.30;99.90
12049;DHT22;6085;49.452;8.502;2024-01-06T22:41:20;4.30;99.90
12049;DHT22;6085;49.452;8.502;2024-01-06T22:45:22;4.30;99.90
12049;DHT22;6085;49.452;8.502;2024-01-06T22:49:25;4.30;99.90
12049;DHT22;6085;49.452;8.502;2024-01-06T22:53:28;4.30;99.90
12049;DHT22;6085;49.452;8.502;2024-01-06T22:57:30;4.30;99.90
12049;DHT22;6085;49.452;8.502;2024-01-06T23:01:31;4.20;99.90
12049;DHT22;6085;49.452;8.502;2024-01-06T23:05:34;4.20;99.90
12049;DHT22;6085;49.452;8.502;2024-01-06T23:09:37;4.20;99.90
12049;DHT22;6085;49.452;8.502;2024-01-06T23:13:39;4.20;99.90
12049;DHT22;6085;49.452;8.502;2024-01-06T23:17:41;4.20;99.90
12049;DHT22;6085;49.452;8.502;2024-01-06T23:21:44;4.20;99.90
12049;DHT22;6085;49.452;8.502;2024-01-06T23:25:47;4.20;99.90
12049;DHT22;6085;49.452;8.502;2024-01-06T23:29:49;4.10;99.90
12049;DHT22;6085;49.452;8.502;2024-01-06T23:33:51;4.10;99.90
12049;DHT22;6085;49.452;8.502;2024-01-06T23:37:55;4.10;99.90
12049;DHT22;6085;49.452;8.502;2024-01-06T23:41:59;4.10;99.90
12049;DHT22;6085;49.452;8.502;2024-01-06T23:46:00;4.10;99.90
12049;DHT22;6085;49.452;8.502;2024-01-06T23:50:03;4.10;99.90
12049;DHT22;6085;49.452;8.502;2024-01-06T23:54:05;4.10;99.90
12049;DHT22;6085;49.452;8.502;2024-01-06T23:58:09;4.10;99.90
